Time;durP1;ratioP1;P1;durP2;ratioP2;P2;SDS_P1;SDS_P2;PMS_P1;PMS_P2;Temp;Humidity;BMP_temperature;BMP_pressure;BME280_temperature;BME280_humidity;BME280_pressure;Samples;Min_cycle;Max_cycle;Signal;HPM_P1;HPM_P2
2022/06/13 00:00:30;;;;;;;3.77;1.10;;;18.40;62.60;;;;;;4937176;29;20187;-80
2022/06/13 00:02:57;;;;;;;4.03;1.27;;;18.30;62.90;;;;;;4955266;28;20223;-80
2022/06/13 00:05:22;;;;;;;2.33;1.30;;;18.30;63.10;;;;;;4953650;29;20686;-79
2022/06/13 00:07:48;;;;;;;2.23;0.93;;;18.30;63.60;;;;;;4954931;29;20711;-79
2022/06/13 00:10:14;;;;;;;2.67;1.37;;;18.20;63.80;;;;;;4954678;29;20629;-79
2022/06/13 00:12:42;;;;;;;3.43;1.27;;;18.20;64.20;;;;;;4937462;28;20196;-79
2022/06/13 00:15:10;;;;;;;3.50;1.10;;;18.20;64.60;;;;;;4926119;29;20576;-79
2022/06/13 00:17:35;;;;;;;2.97;1.03;;;18.10;64.90;;;;;;4955303;29;20573;-79
2022/06/13 00:20:03;;;;;;;3.70;1.23;;;18.10;65.30;;;;;;4937223;29;20679;-79
2022/06/13 00:22:28;;;;;;;3.47;1.30;;;18.10;65.60;;;;;;4954625;29;20192;-79
2022/06/13 00:24:54;;;;;;;2.60;1.10;;;18.00;66.30;;;;;;4937372;29;20620;-80
2022/06/13 00:27:20;;;;;;;3.30;1.10;;;18.00;66.60;;;;;;4921383;29;20180;-79
2022/06/13 00:29:49;;;;;;;4.77;1.17;;;17.90;66.70;;;;;;4953048;29;20293;-80
2022/06/13 00:32:15;;;;;;;2.73;1.00;;;17.90;67.20;;;;;;4954824;29;20255;-79
2022/06/13 00:34:41;;;;;;;5.33;1.30;;;17.90;67.70;;;;;;4937802;29;20707;-79
2022/06/13 00:37:07;;;;;;;4.50;1.23;;;17.80;68.10;;;;;;4954283;29;20579;-80
2022/06/13 00:39:33;;;;;;;1.80;1.07;;;17.80;68.60;;;;;;4936981;29;21112;-80
2022/06/13 00:41:59;;;;;;;2.07;1.00;;;17.70;69.10;;;;;;4953191;29;20176;-80
2022/06/13 00:44:31;;;;;;;2.53;1.20;;;17.70;69.50;;;;;;4937114;29;20604;-80
2022/06/13 00:46:57;;;;;;;5.37;1.57;;;17.70;70.20;;;;;;4937255;29;20223;-80
2022/06/13 00:49:46;;;;;;;4.13;1.50;;;17.60;70.40;;;;;;4954021;29;20622;-80
2022/06/13 00:52:28;;;;;;;5.63;1.38;;;17.60;71.80;;;;;;4958447;29;20200;-78
2022/06/13 00:54:55;;;;;;;3.55;1.23;;;17.60;72.20;;;;;;4952808;29;20203;-79
2022/06/13 00:57:26;;;;;;;4.38;1.40;;;17.50;71.90;;;;;;4954153;29;20234;-80
2022/06/13 00:59:57;;;;;;;3.65;1.13;;;17.50;72.70;;;;;;4952585;29;20694;-79
2022/06/13 01:02:24;;;;;;;4.70;1.50;;;17.40;73.20;;;;;;4953800;29;20176;-79
2022/06/13 01:04:53;;;;;;;3.23;1.00;;;17.40;73.50;;;;;;4920726;29;20615;-79
2022/06/13 01:07:20;;;;;;;8.80;1.77;;;17.40;73.90;;;;;;4936740;29;21298;-79
2022/06/13 01:12:34;;;;;;;2.78;1.40;;;17.30;74.90;;;;;;4953423;29;20575;-79
2022/06/13 01:15:20;;;;;;;4.32;1.33;;;17.30;75.30;;;;;;4953882;29;20613;-79
2022/06/13 01:18:05;;;;;;;4.90;1.43;;;17.20;76.60;;;;;;4953674;29;20628;-79
2022/06/13 01:20:50;;;;;;;3.93;1.20;;;17.20;77.00;;;;;;4952979;29;21115;-80
2022/06/13 01:23:55;;;;;;;3.57;1.20;;;17.10;77.30;;;;;;4920942;29;20593;-80
2022/06/13 01:26:26;;;;;;;3.83;1.30;;;17.10;77.90;;;;;;4936893;29;20583;-79
2022/06/13 01:29:30;;;;;;;8.27;1.30;;;17.10;77.60;;;;;;4939084;29;20920;-80
2022/06/13 01:32:14;;;;;;;3.63;1.77;;;17.10;79.50;;;;;;4961299;29;20203;-79
2022/06/13 01:34:53;;;;;;;3.70;1.33;;;17.10;79.80;;;;;;4938908;29;20584;-80
2022/06/13 01:37:34;;;;;;;4.65;1.90;;;17.00;79.80;;;;;;4953986;29;20168;-80
2022/06/13 01:40:11;;;;;;;5.60;1.70;;;17.00;80.30;;;;;;4936336;29;20172;-79
2022/06/13 01:43:06;;;;;;;3.73;1.70;;;17.00;81.00;;;;;;4953298;28;20611;-79
2022/06/13 01:45:42;;;;;;;5.80;1.92;;;16.90;82.40;;;;;;4936768;29;20564;-79
2022/06/13 01:48:33;;;;;;;5.82;1.65;;;16.90;82.20;;;;;;4943036;29;20171;-80
2022/06/13 01:51:24;;;;;;;4.72;1.77;;;16.90;83.50;;;;;;4942235;29;20214;-79
2022/06/13 01:54:37;;;;;;;3.53;1.55;;;16.90;83.30;;;;;;4942756;29;20207;-79
2022/06/13 01:57:15;;;;;;;4.03;1.40;;;16.80;84.10;;;;;;4956308;28;20584;-79
2022/06/13 01:59:56;;;;;;;5.82;1.50;;;16.80;84.60;;;;;;4959643;29;20223;-78
2022/06/13 02:02:39;;;;;;;6.18;1.98;;;16.80;85.30;;;;;;4942237;29;20609;-79
2022/06/13 02:05:16;;;;;;;3.88;1.20;;;16.70;85.80;;;;;;4960722;29;20164;-79
2022/06/13 02:07:52;;;;;;;6.13;1.90;;;16.70;86.00;;;;;;4959947;29;20239;-79
2022/06/13 02:10:30;;;;;;;4.13;1.95;;;16.70;86.90;;;;;;4959532;28;20200;-79
2022/06/13 02:13:04;;;;;;;4.10;1.95;;;16.70;87.30;;;;;;4959685;28;20188;-79
2022/06/13 02:15:42;;;;;;;8.15;2.45;;;16.80;88.00;;;;;;4959764;28;20180;-79
2022/06/13 02:18:20;;;;;;;4.72;1.90;;;16.70;88.60;;;;;;4960022;29;20168;-77
2022/06/13 02:20:49;;;;;;;3.40;1.55;;;16.70;88.60;;;;;;4959573;29;20200;-78
2022/06/13 02:23:21;;;;;;;5.38;2.40;;;16.70;88.80;;;;;;4960060;28;20664;-78
2022/06/13 02:26:12;;;;;;;5.95;2.13;;;16.70;89.70;;;;;;4942628;29;20222;-78
2022/06/13 02:29:08;;;;;;;4.82;1.88;;;16.70;90.10;;;;;;4958924;28;20208;-78
2022/06/13 02:31:46;;;;;;;3.17;1.70;;;16.70;90.10;;;;;;4939876;29;20685;-79
2022/06/13 02:34:36;;;;;;;7.00;1.75;;;16.70;90.10;;;;;;4958184;29;20601;-80
2022/06/13 02:37:11;;;;;;;8.70;2.33;;;16.60;90.70;;;;;;4958383;29;20167;-80
2022/06/13 02:39:52;;;;;;;6.07;1.70;;;16.60;91.10;;;;;;4942292;29;20172;-80
2022/06/13 02:42:21;;;;;;;2.80;1.85;;;16.60;91.20;;;;;;4964008;28;20165;-80
2022/06/13 02:44:55;;;;;;;4.55;2.10;;;16.60;91.40;;;;;;4959843;28;20180;-79
2022/06/13 02:47:38;;;;;;;7.50;2.92;;;16.60;91.80;;;;;;4959499;28;20230;-79
2022/06/13 02:50:23;;;;;;;3.23;1.43;;;16.50;92.10;;;;;;4959187;28;20649;-79
2022/06/13 02:52:55;;;;;;;3.17;1.77;;;16.60;92.40;;;;;;4958537;28;20934;-78
2022/06/13 02:55:22;;;;;;;5.45;2.50;;;16.50;92.50;;;;;;4959617;28;20646;-79
2022/06/13 02:57:53;;;;;;;7.00;1.90;;;16.50;92.40;;;;;;4957866;28;20193;-79
2022/06/13 03:00:44;;;;;;;7.10;2.20;;;16.50;92.70;;;;;;4955586;29;20180;-79
2022/06/13 03:03:25;;;;;;;6.20;1.80;;;16.60;93.10;;;;;;4956538;28;20993;-79
2022/06/13 03:05:57;;;;;;;6.20;2.80;;;16.50;93.20;;;;;;4939252;29;20596;-79
2022/06/13 03:08:23;;;;;;;6.47;2.03;;;16.60;93.80;;;;;;4956559;29;20622;-79
2022/06/13 03:11:21;;;;;;;5.27;2.20;;;16.60;93.60;;;;;;4955428;29;20590;-79
2022/06/13 03:13:56;;;;;;;3.45;1.92;;;16.60;94.20;;;;;;4922975;29;20199;-79
2022/06/13 03:16:32;;;;;;;3.23;1.50;;;16.60;93.90;;;;;;4954403;29;20203;-79
2022/06/13 03:19:10;;;;;;;5.00;1.80;;;16.70;94.40;;;;;;4941912;29;20586;-79
2022/06/13 03:21:44;;;;;;;4.37;1.90;;;16.70;94.80;;;;;;4957241;29;20587;-78
2022/06/13 03:24:26;;;;;;;6.77;1.90;;;16.70;95.20;;;;;;4938727;29;20625;-79
2022/06/13 03:26:59;;;;;;;4.53;2.10;;;16.70;95.20;;;;;;4954750;29;20571;-78
2022/06/13 03:29:33;;;;;;;5.73;3.00;;;16.80;95.10;;;;;;4955685;29;20963;-78
2022/06/13 03:32:06;;;;;;;4.57;2.27;;;16.80;95.30;;;;;;4953968;29;20665;-78
2022/06/13 03:34:37;;;;;;;5.03;2.10;;;16.80;95.30;;;;;;4954627;28;20598;-79
2022/06/13 03:37:21;;;;;;;3.83;1.75;;;16.80;95.40;;;;;;4955719;29;20564;-79
2022/06/13 03:40:13;;;;;;;3.10;2.10;;;16.80;95.70;;;;;;4955224;29;20168;-79
2022/06/13 03:42:53;;;;;;;4.30;1.60;;;16.80;96.00;;;;;;4937602;28;20683;-79
2022/06/13 03:45:26;;;;;;;5.47;1.83;;;16.80;95.80;;;;;;4955301;29;20176;-79
2022/06/13 03:47:55;;;;;;;4.20;1.70;;;16.80;95.90;;;;;;4955301;29;20663;-79
2022/06/13 03:50:38;;;;;;;3.80;1.83;;;16.80;96.10;;;;;;4954767;29;21199;-79
2022/06/13 03:53:17;;;;;;;5.47;2.17;;;16.80;96.40;;;;;;4937973;29;21001;-79
2022/06/13 03:55:53;;;;;;;8.47;3.17;;;16.70;96.50;;;;;;4958860;29;20727;-79
2022/06/13 03:58:44;;;;;;;4.83;2.33;;;16.70;96.70;;;;;;4963046;23;20712;-79
2022/06/13 04:01:34;;;;;;;5.60;2.97;;;16.70;96.80;;;;;;4948239;28;20629;-79
2022/06/13 04:04:01;;;;;;;8.67;1.80;;;16.70;97.10;;;;;;4966314;28;20698;-79
2022/06/13 04:06:39;;;;;;;6.43;2.10;;;16.70;96.90;;;;;;4991017;28;20653;-79
2022/06/13 04:09:16;;;;;;;4.43;1.80;;;16.70;97.60;;;;;;4982730;28;20622;-79
2022/06/13 04:12:19;;;;;;;3.13;1.70;;;16.70;97.60;;;;;;4971059;28;20629;-78
2022/06/13 04:15:12;;;;;;;4.27;1.80;;;16.70;98.10;;;;;;4978884;28;20589;-79
2022/06/13 04:17:44;;;;;;;3.90;1.70;;;16.80;98.40;;;;;;4980688;28;20590;-79
2022/06/13 04:20:30;;;;;;;7.97;2.23;;;16.80;98.20;;;;;;4986958;28;20175;-79
2022/06/13 04:23:07;;;;;;;6.23;2.67;;;16.90;98.20;;;;;;4984198;28;20673;-79
2022/06/13 04:26:00;;;;;;;6.20;2.80;;;16.90;98.30;;;;;;4980324;28;21147;-79
2022/06/13 04:29:21;;;;;;;6.53;2.27;;;17.00;98.60;;;;;;4979162;28;20753;-78
2022/06/13 04:31:47;;;;;;;4.47;1.97;;;17.00;98.70;;;;;;4917269;29;20669;-79
2022/06/13 04:34:18;;;;;;;4.90;1.63;;;17.00;98.40;;;;;;4913575;29;20626;-78
2022/06/13 04:36:46;;;;;;;8.38;2.80;;;17.00;98.60;;;;;;4950764;28;20626;-78
2022/06/13 04:39:17;;;;;;;5.20;2.70;;;17.00;98.60;;;;;;4973383;28;20202;-78
2022/06/13 04:41:45;;;;;;;4.93;2.23;;;17.00;98.70;;;;;;4955625;28;20563;-78
2022/06/13 04:44:19;;;;;;;6.00;2.63;;;17.10;98.90;;;;;;4976209;28;20567;-78
2022/06/13 04:46:46;;;;;;;3.33;1.55;;;17.10;99.40;;;;;;4956278;28;20230;-77
2022/06/13 04:49:33;;;;;;;4.17;1.60;;;17.20;99.40;;;;;;4973517;28;20262;-78
2022/06/13 04:52:08;;;;;;;5.97;2.97;;;17.20;99.60;;;;;;4972707;28;20666;-78
2022/06/13 04:54:39;;;;;;;4.18;2.00;;;17.40;99.70;;;;;;4973344;28;20575;-78
2022/06/13 04:57:06;;;;;;;5.73;2.17;;;17.40;99.80;;;;;;4973379;28;20222;-78
2022/06/13 04:59:33;;;;;;;3.20;1.70;;;17.60;99.90;;;;;;4972905;28;20607;-79
2022/06/13 05:02:01;;;;;;;4.13;1.80;;;17.70;99.90;;;;;;4954933;28;20630;-78
2022/06/13 05:04:30;;;;;;;5.60;1.90;;;17.80;99.90;;;;;;4973284;28;20673;-79
2022/06/13 05:07:27;;;;;;;6.47;2.17;;;17.90;99.90;;;;;;4973356;28;20989;-78
2022/06/13 05:09:59;;;;;;;2.80;1.40;;;18.00;99.90;;;;;;4964178;28;20623;-79
2022/06/13 05:12:37;;;;;;;5.40;1.90;;;18.00;99.90;;;;;;4955318;28;20610;-79
2022/06/13 05:15:16;;;;;;;4.73;2.17;;;18.10;99.80;;;;;;4970162;28;20592;-78
2022/06/13 05:18:03;;;;;;;5.60;1.90;;;18.20;99.90;;;;;;4963603;28;20658;-78
2022/06/13 05:20:45;;;;;;;3.97;1.57;;;18.20;99.90;;;;;;4974498;28;20972;-79
2022/06/13 05:23:13;;;;;;;7.60;2.50;;;18.30;99.90;;;;;;4972730;28;20578;-78
2022/06/13 05:25:46;;;;;;;3.10;2.00;;;18.30;99.60;;;;;;4973071;28;20571;-79
2022/06/13 05:28:15;;;;;;;6.60;1.73;;;18.30;99.80;;;;;;4972849;28;20666;-78
2022/06/13 05:30:48;;;;;;;6.73;2.43;;;18.40;99.70;;;;;;4971848;28;20614;-78
2022/06/13 05:33:18;;;;;;;6.10;2.10;;;18.40;99.70;;;;;;4972911;28;20700;-79
2022/06/13 05:35:45;;;;;;;4.57;1.90;;;18.40;99.70;;;;;;4972875;28;20975;-79
2022/06/13 05:38:18;;;;;;;4.90;2.00;;;18.40;99.60;;;;;;4972719;28;20591;-78
2022/06/13 05:40:45;;;;;;;4.60;1.63;;;18.50;99.90;;;;;;4972055;28;20583;-79
2022/06/13 05:43:12;;;;;;;5.07;1.60;;;18.50;99.80;;;;;;4972636;28;21300;-79
2022/06/13 05:45:40;;;;;;;3.53;1.80;;;18.60;99.80;;;;;;4955423;28;20571;-79
2022/06/13 05:48:11;;;;;;;7.37;2.00;;;18.60;99.90;;;;;;4972908;28;20943;-79
2022/06/13 05:50:37;;;;;;;9.87;2.10;;;18.60;99.90;;;;;;4954534;28;20677;-80
2022/06/13 05:53:03;;;;;;;5.50;1.70;;;18.70;99.90;;;;;;4972624;28;20985;-79
2022/06/13 05:55:29;;;;;;;6.13;2.20;;;18.70;99.90;;;;;;4971366;28;20583;-79
2022/06/13 05:57:56;;;;;;;4.00;2.10;;;18.80;99.90;;;;;;4975145;28;20606;-79
2022/06/13 06:00:25;;;;;;;3.43;1.50;;;18.80;99.80;;;;;;4970858;28;20179;-80
2022/06/13 06:02:51;;;;;;;5.73;1.80;;;18.90;99.90;;;;;;4969436;28;20929;-79
2022/06/13 06:05:17;;;;;;;9.50;2.07;;;18.90;99.90;;;;;;4971418;28;20674;-80
2022/06/13 06:07:43;;;;;;;5.80;1.93;;;19.00;99.90;;;;;;4952292;28;20694;-80
2022/06/13 06:10:17;;;;;;;6.90;2.13;;;19.10;99.90;;;;;;4967636;28;20583;-79
2022/06/13 06:12:43;;;;;;;4.50;2.17;;;19.20;99.90;;;;;;4994699;28;20704;-79
2022/06/13 06:15:09;;;;;;;5.50;2.23;;;19.30;99.90;;;;;;4992225;28;20566;-78
2022/06/13 06:17:35;;;;;;;6.40;2.50;;;19.40;99.90;;;;;;4969543;28;20335;-79
2022/06/13 06:20:01;;;;;;;5.67;2.13;;;19.50;99.90;;;;;;4971356;28;21065;-80
2022/06/13 06:22:26;;;;;;;4.47;1.67;;;19.60;99.90;;;;;;4971992;28;20572;-80
2022/06/13 06:24:53;;;;;;;5.93;2.63;;;19.60;99.70;;;;;;4972604;28;20250;-80
2022/06/13 06:27:19;;;;;;;4.13;1.60;;;19.60;99.60;;;;;;4970858;28;20186;-79
2022/06/13 06:29:45;;;;;;;7.00;2.70;;;19.70;99.80;;;;;;4971476;28;20698;-79
2022/06/13 06:32:11;;;;;;;3.40;1.70;;;19.90;99.90;;;;;;4978944;28;20945;-79
2022/06/13 06:34:37;;;;;;;3.77;1.70;;;20.10;99.90;;;;;;4980387;28;20172;-79
2022/06/13 06:37:03;;;;;;;6.73;2.10;;;20.40;99.90;;;;;;4976841;28;20613;-80
2022/06/13 06:39:29;;;;;;;5.80;3.33;;;20.60;99.90;;;;;;4990278;28;20649;-80
2022/06/13 06:41:55;;;;;;;3.43;2.07;;;20.70;99.50;;;;;;4970660;28;20641;-80
2022/06/13 06:44:21;;;;;;;6.83;2.10;;;20.70;99.00;;;;;;4947929;28;20191;-80
2022/06/13 06:46:48;;;;;;;6.60;2.30;;;20.60;98.60;;;;;;4961148;28;21095;-79
2022/06/13 06:49:14;;;;;;;9.10;2.47;;;20.60;98.50;;;;;;4974909;28;20682;-80
2022/06/13 06:51:43;;;;;;;5.50;1.87;;;20.60;98.60;;;;;;4974336;28;21036;-80
2022/06/13 06:59:57;;;;;;;5.27;2.20;;;21.00;98.90;;;;;;4945948;28;20656;-80
2022/06/13 07:02:25;;;;;;;5.97;2.40;;;21.20;99.10;;;;;;4960298;28;20594;-82
2022/06/13 07:04:54;;;;;;;3.90;2.00;;;21.40;98.90;;;;;;4957507;28;21303;-82
2022/06/13 07:07:21;;;;;;;6.77;2.07;;;21.50;98.40;;;;;;4955985;29;20615;-81
2022/06/13 07:09:48;;;;;;;5.63;2.20;;;21.60;98.70;;;;;;4956103;29;20658;-81
2022/06/13 07:12:15;;;;;;;5.00;1.87;;;21.80;98.20;;;;;;4958397;29;21312;-81
2022/06/13 07:14:42;;;;;;;7.93;3.00;;;22.00;98.30;;;;;;4938684;28;20607;-81
2022/06/13 07:17:09;;;;;;;4.93;1.77;;;22.60;99.30;;;;;;4974635;28;20567;-81
2022/06/13 07:19:35;;;;;;;6.10;2.30;;;23.50;99.90;;;;;;4972847;28;20638;-80
2022/06/13 07:22:03;;;;;;;5.30;2.20;;;24.50;99.90;;;;;;4972110;28;20587;-81
2022/06/13 07:24:29;;;;;;;2.60;1.50;;;25.60;99.90;;;;;;4973407;28;20574;-82
2022/06/13 07:26:55;;;;;;;3.50;1.60;;;26.80;99.30;;;;;;4973739;28;20985;-82
2022/06/13 07:29:22;;;;;;;4.77;2.13;;;28.00;97.90;;;;;;4973684;28;20606;-81
2022/06/13 07:32:05;;;;;;;4.20;2.03;;;29.10;96.30;;;;;;4970355;28;20639;-80
2022/06/13 07:34:34;;;;;;;4.33;1.80;;;30.10;94.50;;;;;;4972589;28;20653;-82
2022/06/13 07:37:02;;;;;;;5.53;1.77;;;31.20;92.10;;;;;;4974799;28;20587;-80
2022/06/13 07:39:28;;;;;;;7.60;2.47;;;31.90;89.50;;;;;;4951223;28;20623;-81
2022/06/13 07:41:54;;;;;;;6.17;2.67;;;32.30;85.20;;;;;;4972116;28;20603;-80
2022/06/13 07:44:33;;;;;;;6.10;2.90;;;32.70;80.60;;;;;;4956760;28;20173;-80
2022/06/13 07:47:00;;;;;;;5.23;1.67;;;33.10;74.80;;;;;;4976523;28;20652;-80
2022/06/13 07:49:26;;;;;;;5.03;1.80;;;33.70;75.90;;;;;;4949968;28;20662;-81
2022/06/13 07:51:52;;;;;;;4.97;2.10;;;34.10;73.00;;;;;;4970633;28;20639;-80
2022/06/13 07:54:18;;;;;;;4.90;3.00;;;34.40;70.60;;;;;;4974249;28;20302;-80
2022/06/13 07:56:44;;;;;;;5.03;2.73;;;34.40;67.40;;;;;;4974226;28;21085;-80
2022/06/13 07:59:18;;;;;;;7.10;2.97;;;34.20;64.20;;;;;;4974234;28;20625;-79
2022/06/13 08:01:45;;;;;;;6.67;2.90;;;34.10;63.80;;;;;;4944967;28;21150;-81
2022/06/13 08:04:12;;;;;;;6.80;2.83;;;34.20;62.90;;;;;;4974037;28;20577;-79
2022/06/13 08:06:42;;;;;;;8.33;4.17;;;34.40;62.60;;;;;;4957165;28;20744;-78
2022/06/13 08:09:11;;;;;;;6.43;3.20;;;34.50;60.90;;;;;;4973053;28;21164;-79
2022/06/13 08:11:46;;;;;;;11.80;3.90;;;34.20;59.50;;;;;;4951801;28;21067;-80
2022/06/13 08:14:13;;;;;;;8.67;4.27;;;34.30;59.50;;;;;;4959396;28;20599;-80
2022/06/13 08:16:40;;;;;;;10.07;4.30;;;34.20;59.10;;;;;;4975865;28;20684;-80
2022/06/13 08:19:06;;;;;;;10.10;3.57;;;34.20;59.10;;;;;;4976229;28;20657;-80
2022/06/13 08:21:35;;;;;;;8.40;3.60;;;34.50;59.40;;;;;;4968132;28;20604;-80
2022/06/13 08:24:01;;;;;;;4.80;3.37;;;34.60;58.50;;;;;;4965684;28;20609;-79
2022/06/13 08:26:27;;;;;;;5.90;4.00;;;34.50;57.50;;;;;;4978412;28;21121;-80
2022/06/13 08:28:53;;;;;;;7.07;4.43;;;34.00;56.30;;;;;;4959162;28;20677;-80
2022/06/13 08:31:21;;;;;;;5.70;3.90;;;33.50;55.60;;;;;;4976376;28;20979;-79
2022/06/13 08:33:48;;;;;;;6.57;4.40;;;33.20;56.10;;;;;;4955952;28;20592;-79
2022/06/13 08:36:14;;;;;;;7.50;4.73;;;33.20;56.70;;;;;;4974087;28;20671;-79
2022/06/13 08:38:41;;;;;;;7.30;5.10;;;33.40;57.00;;;;;;4957092;28;20613;-80
2022/06/13 08:41:06;;;;;;;8.70;4.73;;;33.30;56.30;;;;;;4974590;28;20574;-80
2022/06/13 08:43:50;;;;;;;6.73;4.30;;;32.90;55.50;;;;;;4974347;28;20669;-80
2022/06/13 08:46:39;;;;;;;7.30;4.33;;;32.40;55.30;;;;;;4976705;28;20289;-80
2022/06/13 08:49:17;;;;;;;10.97;5.77;;;32.10;55.60;;;;;;4955586;28;20662;-79
2022/06/13 08:51:45;;;;;;;8.40;4.70;;;31.90;55.60;;;;;;4958776;28;20650;-79
2022/06/13 08:54:18;;;;;;;8.10;4.77;;;31.60;56.10;;;;;;4979285;28;20675;-80
2022/06/13 08:56:44;;;;;;;6.80;4.57;;;31.30;55.70;;;;;;4979038;28;20622;-79
2022/06/13 08:59:27;;;;;;;6.43;3.77;;;31.30;56.20;;;;;;4960650;28;20630;-79
2022/06/13 09:02:04;;;;;;;8.83;4.40;;;31.50;57.50;;;;;;4978796;28;20611;-79
2022/06/13 09:04:53;;;;;;;4.90;3.40;;;31.70;56.80;;;;;;4960591;28;20593;-80
2022/06/13 09:07:27;;;;;;;6.40;3.53;;;31.60;56.20;;;;;;4957731;28;20594;-80
2022/06/13 09:09:59;;;;;;;4.23;2.10;;;31.10;54.90;;;;;;4957815;28;21289;-78
2022/06/13 09:12:33;;;;;;;9.87;3.53;;;30.60;54.90;;;;;;4981319;28;20630;-79
2022/06/13 09:15:18;;;;;;;5.90;3.13;;;30.00;54.80;;;;;;4978435;28;20582;-79
2022/06/13 09:18:10;;;;;;;7.13;2.37;;;29.40;54.90;;;;;;4978420;28;20622;-80
2022/06/13 09:20:49;;;;;;;6.70;3.00;;;28.70;54.60;;;;;;4941907;28;21052;-79
2022/06/13 09:23:44;;;;;;;6.20;3.70;;;28.20;55.10;;;;;;4973797;28;20571;-78
2022/06/13 09:26:19;;;;;;;5.33;2.80;;;27.80;55.60;;;;;;4962286;28;20591;-77
2022/06/13 09:29:01;;;;;;;10.90;3.80;;;27.40;56.40;;;;;;4973273;28;20644;-78
2022/06/13 09:31:40;;;;;;;9.30;2.87;;;27.10;56.60;;;;;;4951614;28;21062;-79
2022/06/13 09:34:15;;;;;;;8.13;3.10;;;26.90;57.20;;;;;;4957765;28;20595;-78
2022/06/13 09:36:50;;;;;;;8.40;2.90;;;26.80;57.50;;;;;;4969625;28;21158;-79
2022/06/13 09:39:18;;;;;;;6.67;2.53;;;26.70;57.80;;;;;;4966963;28;20630;-79
2022/06/13 09:42:26;;;;;;;4.77;3.33;;;26.60;58.00;;;;;;4975473;28;21037;-79
2022/06/13 09:45:03;;;;;;;7.23;2.43;;;26.60;58.30;;;;;;4961803;28;20578;-79
2022/06/13 09:47:45;;;;;;;5.23;2.90;;;26.50;58.40;;;;;;4976583;28;20638;-79
2022/06/13 09:50:31;;;;;;;6.20;2.20;;;26.30;58.00;;;;;;4975480;28;21158;-80
2022/06/13 09:53:19;;;;;;;7.20;3.93;;;26.10;58.20;;;;;;4974889;28;20626;-79
2022/06/13 09:56:10;;;;;;;4.63;1.57;;;25.90;58.30;;;;;;4970328;28;20606;-79
2022/06/13 09:58:54;;;;;;;5.63;2.17;;;25.70;58.10;;;;;;4971934;28;20653;-79
2022/06/13 10:01:28;;;;;;;5.03;1.83;;;25.40;57.70;;;;;;4972130;28;20567;-78
2022/06/13 10:04:02;;;;;;;5.67;2.00;;;25.10;57.70;;;;;;4976042;28;20563;-78
2022/06/13 10:06:40;;;;;;;7.37;3.00;;;24.90;57.90;;;;;;4973168;28;20944;-79
2022/06/13 10:09:28;;;;;;;9.37;2.90;;;24.70;58.10;;;;;;4976973;28;20611;-80
2022/06/13 10:12:14;;;;;;;7.13;2.43;;;24.40;58.50;;;;;;4977152;28;20657;-78
2022/06/13 10:14:49;;;;;;;4.83;1.90;;;24.20;58.70;;;;;;4975085;28;20583;-79
2022/06/13 10:17:34;;;;;;;7.57;2.13;;;24.20;59.10;;;;;;4976358;28;20598;-78
2022/06/13 10:20:06;;;;;;;7.80;3.87;;;24.20;60.10;;;;;;4974618;28;20571;-78
2022/06/13 10:22:43;;;;;;;5.97;2.30;;;24.50;60.80;;;;;;4975394;28;21098;-79
2022/06/13 10:25:34;;;;;;;3.40;1.87;;;24.80;60.70;;;;;;4958665;28;20575;-78
2022/06/13 10:28:33;;;;;;;3.83;1.70;;;25.10;61.20;;;;;;4974684;28;20707;-79
2022/06/13 10:31:11;;;;;;;4.37;1.50;;;25.60;60.00;;;;;;4974553;28;20622;-79
2022/06/13 10:34:06;;;;;;;5.40;2.40;;;26.10;59.90;;;;;;4975503;28;20589;-79
2022/06/13 10:36:50;;;;;;;5.53;2.13;;;26.50;59.40;;;;;;4970227;28;20605;-79
2022/06/13 10:39:20;;;;;;;4.97;2.03;;;26.70;58.50;;;;;;4969249;28;20610;-79
2022/06/13 10:41:51;;;;;;;5.90;1.70;;;27.00;58.80;;;;;;4994050;28;20566;-79
2022/06/13 10:44:21;;;;;;;6.90;2.00;;;27.20;58.20;;;;;;4994896;28;20574;-78
2022/06/13 10:46:53;;;;;;;7.53;2.10;;;27.60;59.10;;;;;;4977191;28;20685;-79
2022/06/13 10:49:34;;;;;;;3.50;1.10;;;28.00;58.20;;;;;;4967413;28;20677;-79
2022/06/13 10:52:06;;;;;;;5.70;2.07;;;28.30;57.40;;;;;;4975478;28;20626;-79
2022/06/13 10:54:38;;;;;;;4.37;1.97;;;28.40;56.40;;;;;;4973081;28;21374;-78
2022/06/13 10:57:08;;;;;;;3.90;1.57;;;28.50;56.10;;;;;;4973215;28;20590;-78
2022/06/13 10:59:37;;;;;;;4.10;1.50;;;28.50;55.90;;;;;;4968128;28;20634;-77
2022/06/13 11:02:26;;;;;;;5.00;2.00;;;28.60;56.10;;;;;;4974279;28;20582;-78
2022/06/13 11:05:04;;;;;;;3.13;1.80;;;28.70;55.50;;;;;;4976871;28;20563;-79
2022/06/13 11:07:31;;;;;;;5.70;1.83;;;28.80;54.70;;;;;;4976355;28;20656;-78
2022/06/13 11:09:58;;;;;;;6.90;2.43;;;28.70;54.10;;;;;;4974829;28;20591;-78
2022/06/13 11:12:31;;;;;;;3.90;1.53;;;28.70;54.30;;;;;;4974886;28;20721;-78
2022/06/13 11:24:18;;;;;;;4.73;1.73;;;29.40;53.20;;;;;;4974499;28;20610;-79
2022/06/13 11:29:36;;;;;;;2.97;1.30;;;29.50;51.80;;;;;;4976675;28;20602;-80
2022/06/13 11:32:05;;;;;;;6.17;2.07;;;29.60;52.40;;;;;;4974871;28;20996;-80
2022/06/13 11:34:35;;;;;;;8.37;2.30;;;29.80;52.30;;;;;;4969045;28;20617;-80
2022/06/13 11:37:15;;;;;;;4.87;2.00;;;30.00;52.00;;;;;;4977035;28;20590;-80
2022/06/13 11:39:44;;;;;;;4.83;2.00;;;30.20;51.30;;;;;;4976973;28;20601;-80
2022/06/13 11:42:31;;;;;;;5.70;2.93;;;30.40;51.50;;;;;;4958967;28;20637;-81
2022/06/13 11:45:04;;;;;;;4.40;2.10;;;30.40;51.50;;;;;;4975839;28;20570;-79
2022/06/13 11:47:43;;;;;;;2.90;1.27;;;30.50;50.60;;;;;;4975050;28;20582;-80
2022/06/13 11:50:23;;;;;;;3.20;1.43;;;30.20;49.60;;;;;;4962187;28;20590;-79
2022/06/13 11:55:50;;;;;;;4.23;1.87;;;29.90;49.20;;;;;;4982225;28;20682;-79
2022/06/13 11:58:23;;;;;;;6.23;1.83;;;29.70;48.80;;;;;;4990582;28;20632;-79
2022/06/13 12:01:00;;;;;;;5.40;2.67;;;29.40;48.50;;;;;;4976192;28;20606;-79
2022/06/13 12:03:27;;;;;;;5.30;1.27;;;29.20;48.60;;;;;;4980716;28;20586;-79
2022/06/13 12:06:19;;;;;;;3.67;2.00;;;29.10;49.00;;;;;;4978614;28;20634;-79
2022/06/13 12:08:58;;;;;;;3.20;1.87;;;28.90;48.80;;;;;;4976237;28;20627;-79
2022/06/13 12:11:24;;;;;;;4.40;2.50;;;28.80;48.40;;;;;;4957904;29;20675;-79
2022/06/13 12:13:51;;;;;;;4.20;1.60;;;28.60;48.70;;;;;;4956487;29;20568;-80
2022/06/13 12:16:17;;;;;;;6.50;1.60;;;28.60;49.20;;;;;;4954797;29;20571;-79
2022/06/13 12:18:43;;;;;;;2.67;1.53;;;28.60;49.80;;;;;;4963680;28;20626;-79
2022/06/13 12:21:30;;;;;;;5.53;1.83;;;28.80;49.50;;;;;;4971994;28;21087;-79
2022/06/13 12:24:02;;;;;;;2.50;1.40;;;28.70;48.60;;;;;;4974629;28;20634;-80
2022/06/13 12:26:33;;;;;;;3.70;1.80;;;28.90;48.80;;;;;;4971910;28;20603;-80
2022/06/13 12:29:40;;;;;;;8.20;1.63;;;28.90;48.30;;;;;;4975192;28;20611;-80
2022/06/13 12:32:16;;;;;;;3.10;1.03;;;28.90;48.60;;;;;;4887267;28;20643;-79
2022/06/13 12:35:16;;;;;;;3.30;1.03;;;28.90;48.10;;;;;;4972244;28;20622;-80
2022/06/13 12:38:02;;;;;;;5.70;0.87;;;28.70;47.60;;;;;;4973751;28;20583;-79
2022/06/13 12:40:34;;;;;;;3.80;1.40;;;28.60;47.80;;;;;;4968591;28;20591;-80
2022/06/13 12:43:35;;;;;;;2.83;1.20;;;28.50;47.40;;;;;;4975337;28;20586;-79
2022/06/13 12:46:08;;;;;;;2.60;0.80;;;28.20;47.20;;;;;;4974881;28;20637;-80
2022/06/13 12:49:00;;;;;;;2.67;0.97;;;27.90;47.30;;;;;;4965394;28;20631;-79
2022/06/13 12:51:53;;;;;;;2.17;0.80;;;27.60;47.30;;;;;;4969907;28;20630;-79
2022/06/13 12:54:58;;;;;;;2.03;1.03;;;27.20;47.90;;;;;;4974844;28;20571;-79
2022/06/13 12:57:44;;;;;;;4.57;1.10;;;27.00;47.90;;;;;;4979190;28;20601;-78
2022/06/13 13:00:18;;;;;;;4.73;0.87;;;26.80;48.10;;;;;;4973361;28;20921;-78
2022/06/13 13:03:24;;;;;;;2.13;0.80;;;26.70;48.80;;;;;;4971276;28;20574;-77
2022/06/13 13:06:18;;;;;;;3.77;1.37;;;26.60;49.00;;;;;;4935111;28;21348;-78
2022/06/13 13:09:03;;;;;;;3.93;0.97;;;26.60;49.20;;;;;;4971808;28;20606;-78
2022/06/13 13:11:59;;;;;;;4.80;1.20;;;26.50;48.90;;;;;;4971860;28;20697;-80
2022/06/13 13:15:05;;;;;;;4.33;1.00;;;26.30;49.20;;;;;;4926941;28;20721;-78
2022/06/13 13:17:59;;;;;;;3.13;1.00;;;26.20;49.40;;;;;;4935015;28;20698;-79
2022/06/13 13:20:46;;;;;;;3.23;1.40;;;26.10;49.50;;;;;;4974847;28;20939;-78
2022/06/13 13:23:25;;;;;;;2.57;1.17;;;26.00;49.20;;;;;;4971441;28;20630;-80
2022/06/13 13:26:03;;;;;;;2.13;0.80;;;25.90;48.90;;;;;;4972601;28;20579;-80
2022/06/13 13:28:44;;;;;;;3.50;0.80;;;25.80;48.90;;;;;;4971028;28;20606;-80
2022/06/13 13:31:45;;;;;;;2.37;1.07;;;25.70;49.00;;;;;;4971463;28;20626;-80
2022/06/13 13:34:26;;;;;;;2.57;0.70;;;25.60;49.20;;;;;;4968821;28;20641;-79
2022/06/13 13:37:03;;;;;;;4.40;1.10;;;25.50;49.60;;;;;;4969054;28;20583;-79
2022/06/13 13:39:45;;;;;;;4.03;1.30;;;25.40;49.60;;;;;;4963241;28;20618;-79
2022/06/13 13:42:23;;;;;;;4.13;1.13;;;25.40;49.20;;;;;;4971064;28;20606;-79
2022/06/13 13:44:56;;;;;;;2.60;0.83;;;25.40;49.10;;;;;;4960541;28;20592;-79
2022/06/13 13:47:23;;;;;;;2.53;0.80;;;25.30;48.40;;;;;;4972376;28;20622;-79
2022/06/13 13:49:59;;;;;;;4.27;1.00;;;25.30;48.40;;;;;;4971930;28;20631;-79
2022/06/13 13:52:30;;;;;;;7.77;1.53;;;25.20;48.60;;;;;;4956742;28;20721;-79